Time;durP1;ratioP1;P1;durP2;ratioP2;P2;SDS_P1;SDS_P2;PMS_P1;PMS_P2;Temp;Humidity;BMP_temperature;BMP_pressure;BME280_temperature;BME280_humidity;BME280_pressure;Samples;Min_cycle;Max_cycle;Signal;HPM_P1;HPM_P2
2023/09/28 00:00:58;;;;;;;5.82;4.35;;;;;;;9.13;100.00;93268.00;2107147;28;20024;-80
2023/09/28 00:01:59;;;;;;;6.40;3.85;;;;;;;9.14;100.00;93277.50;2106499;28;20027;-80
2023/09/28 00:03:00;;;;;;;7.70;4.38;;;;;;;9.21;100.00;93272.03;2097606;28;20020;-80
2023/09/28 00:04:02;;;;;;;6.07;3.80;;;;;;;9.24;100.00;93278.50;2100035;28;20016;-80
2023/09/28 00:05:04;;;;;;;5.85;3.90;;;;;;;9.27;100.00;93273.13;2118818;27;20094;-81
2023/09/28 00:06:05;;;;;;;5.38;3.72;;;;;;;9.23;100.00;93274.34;2112595;28;20057;-80
2023/09/28 00:07:07;;;;;;;5.38;3.70;;;;;;;9.23;100.00;93269.75;2103326;28;20482;-80
2023/09/28 00:08:08;;;;;;;5.30;3.80;;;;;;;9.18;100.00;93272.13;2104726;28;20019;-80
2023/09/28 00:09:10;;;;;;;5.22;4.10;;;;;;;9.26;100.00;93276.16;2105881;28;20103;-81
2023/09/28 00:10:13;;;;;;;6.30;4.00;;;;;;;9.30;100.00;93274.22;2106373;27;20107;-81
2023/09/28 00:11:14;;;;;;;8.05;3.90;;;;;;;9.30;100.00;93282.97;2100742;28;20099;-78
2023/09/28 00:12:15;;;;;;;6.85;4.05;;;;;;;9.20;100.00;93273.22;2096510;28;20354;-80
2023/09/28 00:13:16;;;;;;;6.00;4.35;;;;;;;9.07;100.00;93274.91;2093879;28;20568;-77
2023/09/28 00:14:17;;;;;;;5.60;4.03;;;;;;;9.02;100.00;93280.69;2100122;28;20028;-79
2023/09/28 00:15:19;;;;;;;6.35;4.13;;;;;;;9.03;100.00;93274.97;2112033;28;20231;-80
2023/09/28 00:16:20;;;;;;;6.05;4.32;;;;;;;9.05;100.00;93282.56;2117387;27;20113;-79
2023/09/28 00:17:21;;;;;;;6.53;3.67;;;;;;;9.08;100.00;93287.84;2110285;28;20450;-79
2023/09/28 00:18:23;;;;;;;6.03;3.65;;;;;;;9.02;100.00;93286.78;2097899;28;20020;-81
2023/09/28 00:19:27;;;;;;;6.20;4.43;;;;;;;9.14;100.00;93280.16;2094670;28;20456;-80
2023/09/28 00:20:28;;;;;;;8.85;4.60;;;;;;;9.16;100.00;93279.75;2100273;27;20021;-80
2023/09/28 00:21:29;;;;;;;5.78;4.00;;;;;;;9.18;100.00;93283.53;2101821;28;20020;-81
2023/09/28 00:22:30;;;;;;;5.22;4.40;;;;;;;9.12;100.00;93281.72;2097565;28;20032;-80
2023/09/28 00:23:32;;;;;;;5.68;3.85;;;;;;;9.15;100.00;93281.66;2098052;28;20078;-79
2023/09/28 00:24:32;;;;;;;6.25;3.85;;;;;;;9.19;100.00;93287.72;2103563;28;20105;-81
2023/09/28 00:25:33;;;;;;;5.22;3.97;;;;;;;9.04;100.00;93291.72;2097316;28;20051;-80
2023/09/28 00:26:34;;;;;;;6.47;4.15;;;;;;;9.11;100.00;93280.22;2097762;28;20017;-81
2023/09/28 00:27:37;;;;;;;8.65;3.92;;;;;;;9.06;100.00;93286.75;2101561;28;20389;-78
2023/09/28 00:28:38;;;;;;;7.28;4.00;;;;;;;8.96;100.00;93290.31;2112036;28;20024;-80
2023/09/28 00:29:39;;;;;;;8.00;4.28;;;;;;;8.88;100.00;93289.63;2102326;28;20055;-81
2023/09/28 00:30:40;;;;;;;6.82;4.10;;;;;;;8.88;100.00;93286.97;2102011;28;20048;-80
2023/09/28 00:31:41;;;;;;;6.35;4.00;;;;;;;8.97;100.00;93284.56;2097751;28;20024;-81
2023/09/28 00:32:43;;;;;;;5.15;4.03;;;;;;;8.92;100.00;93279.69;2097624;28;20031;-79
2023/09/28 00:33:44;;;;;;;4.40;3.40;;;;;;;8.93;100.00;93286.53;2106651;28;20099;-81
2023/09/28 00:34:45;;;;;;;4.15;3.67;;;;;;;9.03;100.00;93290.97;2110285;28;20027;-78
2023/09/28 00:35:46;;;;;;;5.18;3.75;;;;;;;9.05;100.00;93283.31;2110893;28;20027;-80
2023/09/28 00:36:47;;;;;;;5.82;4.20;;;;;;;9.03;100.00;93282.22;2108065;28;20012;-79
2023/09/28 00:37:49;;;;;;;5.75;3.67;;;;;;;9.09;100.00;93285.94;2110154;28;20027;-79
2023/09/28 00:38:50;;;;;;;4.72;4.00;;;;;;;9.03;100.00;93282.97;2109000;28;20019;-81
2023/09/28 00:39:54;;;;;;;8.55;3.78;;;;;;;8.97;100.00;93289.91;2093028;28;20021;-79
2023/09/28 00:40:55;;;;;;;5.95;4.05;;;;;;;8.91;100.00;93283.53;2095974;28;20020;-82
2023/09/28 00:41:56;;;;;;;5.68;3.80;;;;;;;8.92;100.00;93286.94;2098057;28;20055;-81
2023/09/28 00:42:58;;;;;;;5.93;3.90;;;;;;;9.03;100.00;93279.53;2105609;28;20016;-81
2023/09/28 00:44:00;;;;;;;6.30;3.97;;;;;;;9.02;100.00;93273.47;2097691;28;20319;-79
2023/09/28 00:45:02;;;;;;;5.20;3.65;;;;;;;9.09;100.00;93275.28;2108513;28;20028;-81
2023/09/28 00:46:03;;;;;;;4.78;3.63;;;;;;;9.07;100.00;93273.00;2109207;28;20099;-81
2023/09/28 00:47:05;;;;;;;3.95;3.13;;;;;;;9.04;100.00;93287.16;2097702;28;20016;-80
2023/09/28 00:48:09;;;;;;;5.15;3.67;;;;;;;9.09;100.00;93275.28;2110003;27;20069;-81
2023/09/28 00:49:14;;;;;;;5.38;3.63;;;;;;;9.10;100.00;93278.69;2118825;27;20097;-81
2023/09/28 00:50:17;;;;;;;4.72;3.72;;;;;;;9.16;100.00;93271.75;2104084;28;20020;-81
2023/09/28 00:51:19;;;;;;;5.40;4.00;;;;;;;9.18;100.00;93278.22;2108315;28;20104;-79
2023/09/28 00:52:20;;;;;;;5.40;3.90;;;;;;;9.04;100.00;93281.03;2103723;28;20023;-80
2023/09/28 00:53:21;;;;;;;7.72;3.35;;;;;;;9.12;100.00;93277.13;2097783;28;20136;-81
2023/09/28 00:54:23;;;;;;;7.30;3.63;;;;;;;9.08;100.00;93282.50;2108980;28;20023;-79
2023/09/28 00:55:25;;;;;;;7.45;4.05;;;;;;;9.08;100.00;93271.84;2105773;28;20503;-79
2023/09/28 00:56:27;;;;;;;5.10;4.13;;;;;;;9.10;100.00;93276.78;2097549;28;20020;-79
2023/09/28 00:57:29;;;;;;;5.05;3.40;;;;;;;9.18;100.00;93278.22;2097211;28;20031;-80
2023/09/28 00:58:30;;;;;;;6.75;3.72;;;;;;;9.03;100.00;93285.63;2096005;28;20021;-80
2023/09/28 00:59:31;;;;;;;5.10;3.85;;;;;;;9.05;100.00;93272.66;2095795;28;20012;-81
2023/09/28 01:00:34;;;;;;;5.07;3.70;;;;;;;9.02;100.00;93273.47;2100512;28;20426;-81
2023/09/28 01:01:35;;;;;;;6.72;3.55;;;;;;;8.91;100.00;93280.06;2111991;27;20028;-81
2023/09/28 01:02:36;;;;;;;4.97;3.60;;;;;;;9.06;100.00;93274.16;2107485;28;20016;-81
2023/09/28 01:03:37;;;;;;;4.63;3.60;;;;;;;9.07;100.00;93274.91;2093299;28;20106;-79
2023/09/28 01:04:38;;;;;;;4.65;3.38;;;;;;;9.15;100.00;93276.34;2093323;28;20025;-81
2023/09/28 01:05:40;;;;;;;5.65;3.63;;;;;;;9.17;100.00;93273.25;2097641;28;20389;-80
2023/09/28 01:06:41;;;;;;;6.22;3.72;;;;;;;9.10;100.00;93273.38;2109665;28;20031;-79
2023/09/28 01:07:42;;;;;;;7.63;3.88;;;;;;;9.13;100.00;93276.00;2099415;28;20185;-80
2023/09/28 01:08:43;;;;;;;6.82;3.80;;;;;;;9.15;100.00;93272.91;2101634;28;20020;-81
2023/09/28 01:09:44;;;;;;;5.05;3.67;;;;;;;9.17;100.00;93281.25;2105225;28;20095;-78
2023/09/28 01:10:45;;;;;;;5.13;3.40;;;;;;;9.07;100.00;93273.00;2091525;28;20017;-80
2023/09/28 01:11:46;;;;;;;4.68;3.42;;;;;;;9.08;100.00;93282.50;2103396;28;20035;-79
2023/09/28 01:12:48;;;;;;;5.65;4.10;;;;;;;9.03;100.00;93274.97;2103439;28;20019;-80
2023/09/28 01:13:49;;;;;;;5.43;3.75;;;;;;;9.12;100.00;93273.72;2104021;28;20016;-79
2023/09/28 01:14:56;;;;;;;6.13;4.03;;;;;;;9.12;100.00;93282.47;2108289;28;20075;-79
2023/09/28 01:15:57;;;;;;;5.25;3.72;;;;;;;9.16;100.00;93274.41;2120903;27;20032;-81
2023/09/28 01:16:58;;;;;;;5.95;3.63;;;;;;;9.20;100.00;93277.78;2109637;28;20557;-80
2023/09/28 01:18:00;;;;;;;5.47;3.58;;;;;;;9.15;100.00;93275.59;2094085;28;20024;-81
2023/09/28 01:19:01;;;;;;;6.65;4.13;;;;;;;9.13;100.00;93277.88;2095251;28;20728;-80
2023/09/28 01:20:17;;;;;;;5.22;3.30;;;;;;;9.07;100.00;93273.00;2097232;28;20020;-81
2023/09/28 01:21:18;;;;;;;5.47;3.75;;;;;;;9.21;100.00;93281.97;2107666;27;20059;-80
2023/09/28 01:22:21;;;;;;;4.28;3.38;;;;;;;9.21;100.00;93279.28;2100320;28;20111;-80
2023/09/28 01:23:23;;;;;;;6.35;4.32;;;;;;;9.26;100.00;93279.63;2105515;28;20028;-81
2023/09/28 01:24:24;;;;;;;5.53;3.97;;;;;;;9.20;100.00;93278.53;2094720;28;20048;-81
2023/09/28 01:25:27;;;;;;;7.00;3.92;;;;;;;9.08;100.00;93277.16;2103719;28;20686;-79
2023/09/28 01:26:30;;;;;;;5.65;3.80;;;;;;;9.20;100.00;93277.78;2103023;28;20126;-81
2023/09/28 01:27:31;;;;;;;4.80;3.42;;;;;;;9.19;100.00;93282.38;2103967;28;20556;-79
2023/09/28 01:28:33;;;;;;;6.85;4.03;;;;;;;9.17;100.00;93275.91;2103477;28;20086;-83
2023/09/28 01:29:34;;;;;;;7.05;4.18;;;;;;;9.23;100.00;93277.75;2110226;28;20133;-80
2023/09/28 01:30:35;;;;;;;4.60;4.03;;;;;;;9.26;100.00;93278.84;2114069;27;20030;-81
2023/09/28 01:31:36;;;;;;;6.68;4.40;;;;;;;9.25;100.00;93274.66;2112408;28;20428;-79
2023/09/28 01:32:38;;;;;;;4.85;4.18;;;;;;;9.28;100.00;93276.53;2102377;28;20016;-79
2023/09/28 01:33:39;;;;;;;5.43;4.30;;;;;;;9.25;100.00;93280.00;2096896;28;20381;-80
2023/09/28 01:34:40;;;;;;;5.53;4.25;;;;;;;9.20;100.00;93277.78;2105526;28;20042;-81
2023/09/28 01:35:41;;;;;;;5.18;3.83;;;;;;;9.22;100.00;93283.47;2099567;28;20054;-81
2023/09/28 01:36:42;;;;;;;6.40;4.32;;;;;;;9.24;100.00;93283.84;2097221;28;20198;-80
2023/09/28 01:37:49;;;;;;;6.68;4.03;;;;;;;9.21;100.00;93273.97;2104659;28;20035;-80
2023/09/28 01:38:57;;;;;;;6.13;4.18;;;;;;;9.28;100.00;93273.88;2099016;28;20365;-78
2023/09/28 01:39:58;;;;;;;5.97;4.05;;;;;;;9.30;100.00;93268.88;2101251;28;20028;-81
2023/09/28 01:41:00;;;;;;;8.50;4.13;;;;;;;9.28;100.00;93268.53;2096826;28;20457;-80
2023/09/28 01:42:01;;;;;;;4.72;3.85;;;;;;;9.21;100.00;93268.63;2093940;28;20481;-81
2023/09/28 01:43:02;;;;;;;8.45;3.70;;;;;;;9.24;100.00;93270.50;2096675;28;20020;-80
2023/09/28 01:44:03;;;;;;;9.48;4.13;;;;;;;9.16;100.00;93264.50;2105224;28;20020;-81
2023/09/28 01:45:04;;;;;;;6.38;4.20;;;;;;;9.20;100.00;93267.88;2107528;28;20015;-80
2023/09/28 01:46:07;;;;;;;13.95;4.47;;;;;;;9.10;100.00;93271.47;2108443;28;20056;-80
2023/09/28 01:47:29;;;;;;;7.13;4.00;;;;;;;9.17;100.00;93271.34;2102181;28;20553;-81
2023/09/28 01:48:30;;;;;;;12.90;4.57;;;;;;;9.26;100.00;93268.16;2098287;28;20019;-81
2023/09/28 01:49:31;;;;;;;8.35;4.15;;;;;;;9.25;100.00;93270.09;2096448;28;20044;-80
2023/09/28 01:50:33;;;;;;;8.10;3.78;;;;;;;9.25;100.00;93275.41;2113005;27;20019;-78
2023/09/28 01:51:33;;;;;;;6.78;3.85;;;;;;;9.24;100.00;93271.25;2113651;28;20019;-80
2023/09/28 01:52:34;;;;;;;8.52;4.18;;;;;;;9.30;100.00;93277.63;2098079;28;20016;-81
2023/09/28 01:53:35;;;;;;;6.90;4.13;;;;;;;9.31;100.00;93268.50;2089425;28;20090;-80
2023/09/28 01:54:36;;;;;;;7.88;4.03;;;;;;;9.24;100.00;93275.84;2095976;28;20746;-81
2023/09/28 01:55:37;;;;;;;8.35;4.50;;;;;;;9.22;100.00;93270.91;2102109;28;20020;-80
2023/09/28 01:56:39;;;;;;;6.65;4.20;;;;;;;9.20;100.00;93278.53;2102799;28;20104;-79
2023/09/28 01:57:40;;;;;;;7.15;3.67;;;;;;;9.18;100.00;93270.19;2100749;28;20024;-80
2023/09/28 01:58:41;;;;;;;4.75;3.85;;;;;;;9.23;100.00;93275.09;2105532;28;20103;-80
2023/09/28 01:59:42;;;;;;;4.45;3.90;;;;;;;9.31;100.00;93273.06;2099825;28;20064;-80
2023/09/28 02:00:46;;;;;;;4.43;3.30;;;;;;;9.40;100.00;93270.66;2094754;28;20762;-80
2023/09/28 02:01:46;;;;;;;5.18;3.95;;;;;;;9.40;100.00;93267.22;2103762;28;20023;-79
2023/09/28 02:02:53;;;;;;;5.82;4.40;;;;;;;9.32;100.00;93264.66;2108963;28;20015;-81
2023/09/28 02:03:54;;;;;;;6.80;3.90;;;;;;;9.37;100.00;93271.44;2102898;27;20016;-81
2023/09/28 02:04:56;;;;;;;8.32;3.90;;;;;;;9.39;100.00;93265.69;2113357;28;20518;-81
2023/09/28 02:05:57;;;;;;;5.57;4.38;;;;;;;9.30;100.00;93266.97;2100484;28;20497;-80
2023/09/28 02:06:58;;;;;;;6.45;4.22;;;;;;;9.34;100.00;93261.56;2096570;28;20016;-80
2023/09/28 02:07:59;;;;;;;6.63;4.28;;;;;;;9.34;100.00;93269.59;2104995;28;20023;-79
2023/09/28 02:09:00;;;;;;;5.57;3.88;;;;;;;9.36;100.00;93269.19;2105694;28;20047;-80
2023/09/28 02:10:01;;;;;;;6.88;4.60;;;;;;;9.39;100.00;93271.78;2105214;28;20357;-80
2023/09/28 02:11:03;;;;;;;5.10;4.15;;;;;;;9.41;100.00;93268.72;2095803;28;20029;-80
2023/09/28 02:12:04;;;;;;;6.70;4.30;;;;;;;9.51;100.00;93271.22;2108529;28;20024;-81
2023/09/28 02:13:05;;;;;;;5.25;3.92;;;;;;;9.52;100.00;93271.97;2101287;28;20046;-80
2023/09/28 02:14:06;;;;;;;5.38;4.18;;;;;;;9.47;100.00;93273.19;2101009;28;20012;-81
2023/09/28 02:15:09;;;;;;;6.03;4.38;;;;;;;9.46;100.00;93276.28;2093486;28;20120;-79
2023/09/28 02:16:11;;;;;;;6.80;4.38;;;;;;;9.43;100.00;93275.16;2098180;28;20023;-80
2023/09/28 02:17:12;;;;;;;8.23;4.45;;;;;;;9.36;100.00;93283.28;2103927;28;20052;-77
2023/09/28 02:18:13;;;;;;;7.57;4.80;;;;;;;9.41;100.00;93282.06;2111346;28;20813;-80
2023/09/28 02:19:15;;;;;;;7.60;3.85;;;;;;;9.44;100.00;93282.03;2106517;28;20049;-80
2023/09/28 02:20:22;;;;;;;9.70;4.47;;;;;;;9.51;100.00;93279.25;2105615;28;20028;-81
2023/09/28 02:21:23;;;;;;;7.53;4.57;;;;;;;9.57;100.00;93277.63;2110158;28;20416;-81
2023/09/28 02:22:24;;;;;;;5.78;4.40;;;;;;;9.55;100.00;93271.19;2110546;28;20032;-81
2023/09/28 02:23:26;;;;;;;6.18;4.30;;;;;;;9.65;100.00;93266.84;2108367;28;20055;-81
2023/09/28 02:24:27;;;;;;;6.47;4.43;;;;;;;9.62;100.00;93273.00;2103215;28;20095;-79
2023/09/28 02:25:29;;;;;;;8.70;4.40;;;;;;;9.62;100.00;93265.75;2108366;28;20020;-81
2023/09/28 02:26:30;;;;;;;6.95;4.60;;;;;;;9.52;100.00;93272.72;2103603;28;20492;-80
2023/09/28 02:27:31;;;;;;;5.63;4.07;;;;;;;9.62;100.00;93276.41;2100479;28;20031;-80
2023/09/28 02:28:32;;;;;;;5.88;4.07;;;;;;;9.61;100.00;93274.13;2104167;28;20027;-81
2023/09/28 02:29:33;;;;;;;7.80;4.68;;;;;;;9.56;100.00;93272.69;2103717;28;20024;-79
2023/09/28 02:30:34;;;;;;;6.53;4.35;;;;;;;9.62;100.00;93279.09;2094478;28;20027;-81
2023/09/28 02:31:35;;;;;;;6.93;3.90;;;;;;;9.56;100.00;93278.78;2101345;28;20030;-81
2023/09/28 02:32:40;;;;;;;4.90;3.65;;;;;;;9.61;100.00;93280.22;2108400;28;20461;-81
2023/09/28 02:33:40;;;;;;;5.68;4.15;;;;;;;9.58;100.00;93281.81;2102679;28;20040;-80
2023/09/28 02:34:41;;;;;;;8.13;4.50;;;;;;;9.55;100.00;93285.28;2111439;28;20024;-82
2023/09/28 02:35:42;;;;;;;6.15;4.20;;;;;;;9.72;100.00;93283.50;2107466;28;20028;-81
2023/09/28 02:36:43;;;;;;;5.38;3.83;;;;;;;9.70;100.00;93282.38;2104603;28;20108;-80
2023/09/28 02:37:48;;;;;;;8.25;4.45;;;;;;;9.79;100.00;93279.97;2098667;28;20020;-80
2023/09/28 02:38:50;;;;;;;7.25;4.28;;;;;;;9.68;100.00;93282.03;2101803;28;20020;-80
2023/09/28 02:39:51;;;;;;;6.65;4.22;;;;;;;9.55;100.00;93285.28;2115523;28;20026;-80
2023/09/28 02:40:52;;;;;;;5.93;4.07;;;;;;;9.62;100.00;93286.34;2117437;28;20430;-81
2023/09/28 02:41:53;;;;;;;6.85;4.15;;;;;;;9.53;100.00;93282.28;2105059;28;20377;-81
2023/09/28 02:42:54;;;;;;;6.28;4.53;;;;;;;9.54;100.00;93281.09;2105525;28;20016;-80
2023/09/28 02:43:55;;;;;;;5.00;4.13;;;;;;;9.49;100.00;93281.56;2104166;28;20509;-81
2023/09/28 02:44:56;;;;;;;6.03;3.92;;;;;;;9.65;100.00;93285.50;2102028;28;20024;-81
2023/09/28 02:45:59;;;;;;;5.85;4.60;;;;;;;9.58;100.00;93289.06;2113440;28;20118;-82
2023/09/28 02:47:02;;;;;;;7.93;4.32;;;;;;;9.71;100.00;93278.56;2111894;28;20016;-80
2023/09/28 02:48:04;;;;;;;8.00;4.03;;;;;;;9.70;100.00;93283.16;2111903;28;20477;-80
2023/09/28 02:49:06;;;;;;;7.35;4.65;;;;;;;9.86;100.00;93279.09;2099415;28;20025;-81
2023/09/28 02:50:11;;;;;;;6.00;4.15;;;;;;;9.75;100.00;93280.03;2101187;28;20044;-79
2023/09/28 02:51:12;;;;;;;6.15;4.20;;;;;;;9.64;100.00;93286.69;2101313;28;20056;-81
2023/09/28 02:52:13;;;;;;;7.00;4.30;;;;;;;9.52;100.00;93288.00;2099040;28;20021;-80
2023/09/28 02:53:14;;;;;;;6.43;4.70;;;;;;;9.52;100.00;93283.41;2104310;28;20492;-81
2023/09/28 02:54:15;;;;;;;5.72;3.83;;;;;;;9.60;100.00;93281.41;2104139;28;20028;-79
2023/09/28 02:55:17;;;;;;;8.13;4.57;;;;;;;9.52;100.00;93288.75;2096519;28;20396;-81
2023/09/28 02:56:18;;;;;;;5.93;4.20;;;;;;;9.50;100.00;93274.31;2110553;28;20480;-79
2023/09/28 02:57:19;;;;;;;6.68;4.03;;;;;;;9.45;100.00;93280.88;2111166;28;20122;-80
2023/09/28 02:58:22;;;;;;;8.43;4.18;;;;;;;9.51;100.00;93279.25;2093089;28;20021;-80
2023/09/28 02:59:23;;;;;;;8.27;4.22;;;;;;;9.50;100.00;93279.66;2096828;28;20051;-80
2023/09/28 03:00:33;;;;;;;6.28;4.25;;;;;;;9.46;100.00;93279.69;2105129;28;20107;-82
2023/09/28 03:01:34;;;;;;;9.05;4.35;;;;;;;9.58;100.00;93284.47;2106168;28;20032;-80
2023/09/28 03:02:35;;;;;;;6.72;4.22;;;;;;;9.69;100.00;93280.88;2101003;28;20024;-81
2023/09/28 03:03:35;;;;;;;7.22;4.05;;;;;;;9.63;100.00;93277.16;2100778;28;20024;-81
2023/09/28 03:04:36;;;;;;;5.32;3.90;;;;;;;9.64;100.00;93281.34;2101036;28;20021;-81
2023/09/28 03:05:38;;;;;;;10.95;4.55;;;;;;;9.67;100.00;93283.97;2102818;28;20166;-82
2023/09/28 03:06:40;;;;;;;6.43;4.50;;;;;;;9.63;100.00;93282.50;2108883;28;20034;-81
2023/09/28 03:07:42;;;;;;;6.65;4.38;;;;;;;9.73;100.00;93278.91;2110684;28;20016;-80
2023/09/28 03:08:43;;;;;;;5.65;4.10;;;;;;;9.66;100.00;93284.34;2105210;28;20039;-82
2023/09/28 03:09:44;;;;;;;6.93;4.38;;;;;;;9.75;100.00;93285.38;2095203;28;20855;-81
2023/09/28 03:10:45;;;;;;;4.88;4.15;;;;;;;9.75;100.00;93281.94;2094334;28;20039;-81
2023/09/28 03:11:46;;;;;;;6.38;4.32;;;;;;;9.78;100.00;93279.19;2112461;28;20035;-79
2023/09/28 03:12:49;;;;;;;6.85;4.18;;;;;;;9.75;100.00;93277.34;2106049;28;20028;-81
2023/09/28 03:13:50;;;;;;;6.43;3.80;;;;;;;9.76;100.00;93278.09;2121747;28;20023;-80
2023/09/28 03:14:51;;;;;;;7.25;4.38;;;;;;;9.76;100.00;93275.44;2110326;28;20022;-81
2023/09/28 03:15:53;;;;;;;8.82;4.45;;;;;;;9.86;100.00;93274.50;2089280;28;20024;-79
2023/09/28 03:16:54;;;;;;;7.88;4.38;;;;;;;9.80;100.00;93276.13;2101774;28;20020;-80
2023/09/28 03:17:56;;;;;;;8.02;4.10;;;;;;;9.74;100.00;93281.16;2112309;28;20384;-81
2023/09/28 03:18:57;;;;;;;6.13;3.75;;;;;;;9.67;100.00;93278.63;2116958;27;20070;-78
2023/09/28 03:19:58;;;;;;;8.45;4.68;;;;;;;9.62;100.00;93284.44;2110888;28;20031;-80
2023/09/28 03:20:59;;;;;;;8.00;4.68;;;;;;;9.62;100.00;93289.00;2101080;28;20502;-80
2023/09/28 03:22:00;;;;;;;6.38;4.35;;;;;;;9.61;100.00;93280.22;2098323;28;20020;-81
2023/09/28 03:23:01;;;;;;;5.47;4.03;;;;;;;9.72;100.00;93280.06;2106600;28;20047;-80
2023/09/28 03:24:03;;;;;;;11.18;4.72;;;;;;;9.71;100.00;93281.25;2103759;28;20373;-80
2023/09/28 03:25:09;;;;;;;7.75;3.92;;;;;;;9.80;100.00;93281.47;2104264;28;20024;-80
2023/09/28 03:26:10;;;;;;;9.18;4.85;;;;;;;9.86;100.00;93282.50;2102416;28;20476;-81
2023/09/28 03:27:11;;;;;;;9.20;4.70;;;;;;;9.88;100.00;93282.09;2109431;28;20047;-78
2023/09/28 03:28:13;;;;;;;5.95;4.07;;;;;;;9.84;100.00;93282.19;2101172;28;20019;-79
2023/09/28 03:29:14;;;;;;;6.97;3.92;;;;;;;9.92;100.00;93282.78;2098109;28;20016;-80
2023/09/28 03:30:16;;;;;;;7.22;4.10;;;;;;;9.90;100.00;93280.53;2096145;28;20447;-79
2023/09/28 03:31:17;;;;;;;8.00;4.10;;;;;;;9.97;100.00;93287.69;2096316;28;20067;-79
2023/09/28 03:32:18;;;;;;;8.23;4.38;;;;;;;9.93;100.00;93284.31;2104408;28;20027;-80
2023/09/28 03:33:19;;;;;;;8.25;4.00;;;;;;;9.88;100.00;93290.88;2095956;28;20048;-79
2023/09/28 03:34:20;;;;;;;8.90;3.72;;;;;;;9.81;100.00;93283.72;2106477;28;20089;-80
2023/09/28 03:35:22;;;;;;;8.07;4.40;;;;;;;9.82;100.00;93287.91;2114765;28;20076;-80
2023/09/28 03:36:23;;;;;;;7.68;4.32;;;;;;;9.87;100.00;93285.94;2106246;28;20042;-81
2023/09/28 03:37:24;;;;;;;8.32;4.20;;;;;;;9.95;100.00;93292.66;2104378;28;20021;-80
2023/09/28 03:38:25;;;;;;;6.20;4.07;;;;;;;9.94;100.00;93286.56;2100160;28;20059;-81
2023/09/28 03:39:26;;;;;;;5.07;3.85;;;;;;;9.96;100.00;93286.16;2111002;28;20026;-81
2023/09/28 03:40:33;;;;;;;7.07;4.13;;;;;;;10.01;100.00;93283.78;2108680;28;20030;-82
2023/09/28 03:41:34;;;;;;;5.57;4.10;;;;;;;9.98;100.00;93281.19;2096124;28;20016;-79
2023/09/28 03:42:35;;;;;;;8.02;4.82;;;;;;;9.98;100.00;93287.28;2106116;28;20094;-79
2023/09/28 03:43:36;;;;;;;5.50;3.63;;;;;;;9.94;100.00;93289.25;2113884;28;20035;-82
2023/09/28 03:44:37;;;;;;;9.88;4.35;;;;;;;9.84;100.00;93280.25;2099418;28;20040;-79
2023/09/28 03:45:39;;;;;;;6.85;4.32;;;;;;;9.89;100.00;93286.28;2103684;28;20436;-80
2023/09/28 03:46:39;;;;;;;7.50;4.03;;;;;;;9.97;100.00;93288.44;2098767;28;20051;-81
2023/09/28 03:47:42;;;;;;;6.32;4.07;;;;;;;9.97;100.00;93293.03;2101627;28;20044;-82
2023/09/28 03:48:44;;;;;;;6.40;3.92;;;;;;;9.95;100.00;93288.06;2104464;27;20020;-81
2023/09/28 03:49:45;;;;;;;7.25;4.35;;;;;;;10.00;100.00;93298.28;2119206;27;20019;-80
2023/09/28 03:50:46;;;;;;;5.28;3.85;;;;;;;10.04;100.00;93299.00;2099838;28;20396;-79
2023/09/28 03:51:47;;;;;;;6.68;4.15;;;;;;;9.95;100.00;93295.34;2105570;28;20024;-79
2023/09/28 03:52:48;;;;;;;6.28;3.67;;;;;;;9.98;100.00;93289.94;2108120;28;20110;-81
2023/09/28 03:53:49;;;;;;;8.90;4.30;;;;;;;9.90;100.00;93293.88;2106522;28;20165;-82
2023/09/28 03:54:50;;;;;;;7.68;4.60;;;;;;;9.90;100.00;93288.53;2103745;28;20165;-79
2023/09/28 03:55:51;;;;;;;7.63;4.55;;;;;;;9.79;100.00;93288.72;2098056;28;20023;-81
2023/09/28 03:56:52;;;;;;;5.38;4.00;;;;;;;9.76;100.00;93289.53;2105666;28;20020;-80
2023/09/28 03:57:53;;;;;;;6.70;4.30;;;;;;;9.76;100.00;93294.88;2101845;28;20081;-80
2023/09/28 03:58:54;;;;;;;5.20;4.05;;;;;;;9.67;100.00;93296.56;2106448;28;20086;-79
2023/09/28 03:59:56;;;;;;;9.27;4.57;;;;;;;9.69;100.00;93299.56;2092797;28;20017;-81
2023/09/28 04:00:57;;;;;;;6.38;4.70;;;;;;;9.82;100.00;93303.16;2105704;28;20115;-81
2023/09/28 04:01:58;;;;;;;6.68;4.20;;;;;;;9.92;100.00;93304.94;2105400;28;20012;-78
2023/09/28 04:02:59;;;;;;;7.45;4.18;;;;;;;9.89;100.00;93303.06;2108275;27;20061;-78
2023/09/28 04:04:00;;;;;;;6.03;4.13;;;;;;;9.78;100.00;93313.16;2114555;28;20392;-81
2023/09/28 04:05:01;;;;;;;8.00;4.20;;;;;;;9.81;100.00;93302.41;2095509;28;20027;-80
2023/09/28 04:06:02;;;;;;;7.47;4.30;;;;;;;9.92;100.00;93304.94;2103599;28;20895;-81
2023/09/28 04:07:03;;;;;;;6.32;4.00;;;;;;;10.04;100.00;93304.31;2100155;28;20020;-81
2023/09/28 04:08:05;;;;;;;6.65;4.78;;;;;;;9.96;100.00;93300.25;2102517;28;20028;-79
2023/09/28 04:09:07;;;;;;;5.70;4.07;;;;;;;9.97;100.00;93304.47;2110294;27;20345;-80
2023/09/28 04:10:09;;;;;;;10.32;4.55;;;;;;;9.87;100.00;93307.28;2105624;28;20464;-80
2023/09/28 04:11:10;;;;;;;7.15;4.10;;;;;;;9.92;100.00;93304.16;2104733;28;20048;-80
2023/09/28 04:12:12;;;;;;;6.75;4.38;;;;;;;9.89;100.00;93307.66;2098936;28;20017;-81
2023/09/28 04:13:13;;;;;;;8.30;5.15;;;;;;;9.77;100.00;93312.41;2111312;28;20055;-82
2023/09/28 04:14:14;;;;;;;7.32;4.90;;;;;;;9.73;100.00;93313.59;2097783;28;20016;-81
2023/09/28 04:15:16;;;;;;;8.07;4.18;;;;;;;9.77;100.00;93315.06;2105827;28;20838;-80
2023/09/28 04:16:17;;;;;;;7.63;4.75;;;;;;;9.79;100.00;93317.34;2116268;27;20031;-81
2023/09/28 04:17:18;;;;;;;7.47;4.97;;;;;;;9.73;100.00;93321.63;2120745;27;20023;-81
2023/09/28 04:18:19;;;;;;;5.20;3.90;;;;;;;9.66;100.00;93313.72;2106032;28;20024;-79
2023/09/28 04:19:20;;;;;;;11.55;5.63;;;;;;;9.68;100.00;93308.72;2095547;28;20043;-81
2023/09/28 04:20:21;;;;;;;9.00;4.47;;;;;;;9.59;100.00;93310.00;2094356;28;20036;-81
2023/09/28 04:21:23;;;;;;;7.20;4.80;;;;;;;9.63;100.00;93317.19;2094417;28;20480;-79
2023/09/28 04:22:24;;;;;;;7.68;4.78;;;;;;;9.60;100.00;93313.41;2097546;28;20389;-80
2023/09/28 04:23:25;;;;;;;6.88;4.90;;;;;;;9.67;100.00;93315.25;2095927;28;20016;-82
2023/09/28 04:24:26;;;;;;;5.55;4.40;;;;;;;9.73;100.00;93308.28;2099313;28;20135;-80
2023/09/28 04:25:29;;;;;;;11.27;5.50;;;;;;;9.71;100.00;93313.28;2105056;28;20038;-80
2023/09/28 04:26:30;;;;;;;6.97;4.82;;;;;;;9.75;100.00;93314.72;2102567;28;20111;-79
2023/09/28 04:27:31;;;;;;;7.20;4.25;;;;;;;9.67;100.00;93309.91;2105153;28;20090;-79
2023/09/28 04:28:32;;;;;;;9.65;4.55;;;;;;;9.69;100.00;93310.25;2097929;28;20016;-80
2023/09/28 04:29:33;;;;;;;6.10;4.40;;;;;;;9.72;100.00;93309.44;2096693;28;20105;-82
2023/09/28 04:30:34;;;;;;;7.55;5.38;;;;;;;9.56;100.00;93313.47;2103834;28;20119;-80
2023/09/28 04:31:35;;;;;;;6.45;4.28;;;;;;;9.57;100.00;93315.00;2103159;28;20020;-80
2023/09/28 04:32:36;;;;;;;8.45;4.35;;;;;;;9.66;100.00;93313.72;2097083;28;20024;-81
2023/09/28 04:33:37;;;;;;;7.32;4.50;;;;;;;9.58;100.00;93313.09;2103393;28;20111;-79
2023/09/28 04:34:41;;;;;;;6.50;4.05;;;;;;;9.57;100.00;93314.25;2118650;27;20019;-81
2023/09/28 04:35:42;;;;;;;6.90;4.22;;;;;;;9.58;100.00;93315.75;2110429;28;20042;-80
2023/09/28 04:36:44;;;;;;;5.93;4.18;;;;;;;9.57;100.00;93311.56;2109616;28;20452;-81
2023/09/28 04:37:46;;;;;;;7.82;4.80;;;;;;;9.52;100.00;93318.09;2110981;28;20020;-82
2023/09/28 04:38:47;;;;;;;8.27;4.30;;;;;;;9.61;100.00;93317.59;2102233;28;20396;-82
2023/09/28 04:39:48;;;;;;;7.47;4.78;;;;;;;9.80;100.00;93318.84;2101586;28;20017;-79
2023/09/28 04:40:50;;;;;;;7.95;4.68;;;;;;;9.69;100.00;93315.56;2104422;28;20468;-81
2023/09/28 04:41:58;;;;;;;8.10;4.38;;;;;;;9.46;100.00;93306.38;2107834;27;20016;-81
2023/09/28 04:42:59;;;;;;;8.50;4.70;;;;;;;9.53;100.00;93319.63;2121918;27;20026;-80
2023/09/28 04:44:00;;;;;;;6.07;4.45;;;;;;;9.51;100.00;93310.50;2109909;28;20028;-80
2023/09/28 04:45:01;;;;;;;6.57;4.35;;;;;;;9.51;100.00;93307.84;2111460;28;20035;-81
2023/09/28 04:46:05;;;;;;;6.00;4.50;;;;;;;9.53;100.00;93305.53;2101072;28;20385;-80
2023/09/28 04:47:06;;;;;;;8.38;4.65;;;;;;;9.43;100.00;93306.44;2097446;28;20025;-81
2023/09/28 04:48:07;;;;;;;10.98;4.65;;;;;;;9.36;100.00;93309.97;2097352;28;20016;-81
2023/09/28 04:49:08;;;;;;;9.88;4.70;;;;;;;9.30;100.00;93306.97;2102229;28;20070;-80
2023/09/28 04:50:09;;;;;;;6.85;3.92;;;;;;;9.51;100.00;93315.84;2105676;28;20020;-82
2023/09/28 04:51:10;;;;;;;8.23;4.47;;;;;;;9.40;100.00;93307.25;2105243;28;20094;-80